sensor_id;sensor_type;location;lat;lon;timestamp;pressure;altitude;pressure_sealevel;temperature
68342;BMP280;55668;52.310;21.066;2023-09-12T00:07:51;100500.0;;;17.2
68342;BMP280;55668;52.310;21.066;2023-09-12T00:24:02;100490.0;;;16.9
68342;BMP280;55668;52.310;21.066;2023-09-12T01:09:02;100490.0;;;16.8
68342;BMP280;55668;52.310;21.066;2023-09-12T01:25:09;100500.0;;;16.7
68342;BMP280;55668;52.310;21.066;2023-09-12T01:39:57;100500.0;;;16.3
68342;BMP280;55668;52.310;21.066;2023-09-12T01:55:44;100500.0;;;15.9
68342;BMP280;55668;52.310;21.066;2023-09-12T02:10:38;100500.0;;;15.8
68342;BMP280;55668;52.310;21.066;2023-09-12T03:12:22;100490.0;;;15.7
68342;BMP280;55668;52.310;21.066;2023-09-12T03:27:44;100490.0;;;15.8
68342;BMP280;55668;52.310;21.066;2023-09-12T03:57:57;100510.0;;;15.9
68342;BMP280;55668;52.310;21.066;2023-09-12T04:15:26;100510.0;;;16.0
68342;BMP280;55668;52.310;21.066;2023-09-12T04:29:56;100520.0;;;16.2
68342;BMP280;55668;52.310;21.066;2023-09-12T04:43:38;100520.0;;;16.4
68342;BMP280;55668;52.310;21.066;2023-09-12T04:59:28;100520.0;;;16.6
68342;BMP280;55668;52.310;21.066;2023-09-12T05:14:11;100530.0;;;17.1
68342;BMP280;55668;52.310;21.066;2023-09-12T05:30:27;100540.0;;;17.6
68342;BMP280;55668;52.310;21.066;2023-09-12T05:45:22;100540.0;;;18.3
68342;BMP280;55668;52.310;21.066;2023-09-12T05:57:48;100540.0;;;19.6
68342;BMP280;55668;52.310;21.066;2023-09-12T06:08:40;100540.0;;;24.0
68342;BMP280;55668;52.310;21.066;2023-09-12T06:27:01;100550.0;;;23.6
68342;BMP280;55668;52.310;21.066;2023-09-12T06:53:14;100550.0;;;27.3
68342;BMP280;55668;52.310;21.066;2023-09-12T07:12:11;100560.0;;;32.5
68342;BMP280;55668;52.310;21.066;2023-09-12T07:24:48;100560.0;;;34.7
68342;BMP280;55668;52.310;21.066;2023-09-12T07:42:09;100560.0;;;30.9
68342;BMP280;55668;52.310;21.066;2023-09-12T07:47:39;100560.0;;;29.6
68342;BMP280;55668;52.310;21.066;2023-09-12T08:05:17;100560.0;;;27.4
68342;BMP280;55668;52.310;21.066;2023-09-12T08:35:39;100560.0;;;27.3
68342;BMP280;55668;52.310;21.066;2023-09-12T09:05:20;100550.0;;;27.6
68342;BMP280;55668;52.310;21.066;2023-09-12T09:19:58;100540.0;;;27.8
68342;BMP280;55668;52.310;21.066;2023-09-12T09:38:35;100530.0;;;28.1
68342;BMP280;55668;52.310;21.066;2023-09-12T09:51:11;100530.0;;;28.3
68342;BMP280;55668;52.310;21.066;2023-09-12T10:07:00;100520.0;;;28.5
68342;BMP280;55668;52.310;21.066;2023-09-12T10:21:40;100510.0;;;28.8
68342;BMP280;55668;52.310;21.066;2023-09-12T10:38:02;100510.0;;;28.9
68342;BMP280;55668;52.310;21.066;2023-09-12T11:08:06;100490.0;;;29.3
68342;BMP280;55668;52.310;21.066;2023-09-12T11:26:05;100490.0;;;29.2
68342;BMP280;55668;52.310;21.066;2023-09-12T11:39:31;100480.0;;;29.3
68342;BMP280;55668;52.310;21.066;2023-09-12T11:54:28;100480.0;;;29.2
68342;BMP280;55668;52.310;21.066;2023-09-12T12:09:24;100480.0;;;29.1
68342;BMP280;55668;52.310;21.066;2023-09-12T12:24:13;100470.0;;;28.8
68342;BMP280;55668;52.310;21.066;2023-09-12T12:39:48;100460.0;;;30.1
68342;BMP280;55668;52.310;21.066;2023-09-12T12:55:40;100460.0;;;29.0
68342;BMP280;55668;52.310;21.066;2023-09-12T13:12:12;100440.0;;;28.8
68342;BMP280;55668;52.310;21.066;2023-09-12T13:25:17;100440.0;;;28.4
68342;BMP280;55668;52.310;21.066;2023-09-12T13:40:28;100440.0;;;28.0
68342;BMP280;55668;52.310;21.066;2023-09-12T13:56:12;100440.0;;;27.7
68342;BMP280;55668;52.310;21.066;2023-09-12T14:12:44;100440.0;;;27.4
68342;BMP280;55668;52.310;21.066;2023-09-12T14:26:31;100430.0;;;27.2
68342;BMP280;55668;52.310;21.066;2023-09-12T14:44:49;100440.0;;;27.1
68342;BMP280;55668;52.310;21.066;2023-09-12T14:57:09;100450.0;;;26.9
68342;BMP280;55668;52.310;21.066;2023-09-12T15:47:00;100440.0;;;26.8
68342;BMP280;55668;52.310;21.066;2023-09-12T15:58:25;100450.0;;;26.7
68342;BMP280;55668;52.310;21.066;2023-09-12T16:13:53;100440.0;;;26.3
68342;BMP280;55668;52.310;21.066;2023-09-12T16:29:30;100440.0;;;25.8
68342;BMP280;55668;52.310;21.066;2023-09-12T16:46:57;100440.0;;;25.2
68342;BMP280;55668;52.310;21.066;2023-09-12T16:59:47;100450.0;;;24.5
68342;BMP280;55668;52.310;21.066;2023-09-12T17:15:31;100460.0;;;24.0
68342;BMP280;55668;52.310;21.066;2023-09-12T17:30:29;100450.0;;;23.3
68342;BMP280;55668;52.310;21.066;2023-09-12T17:47:46;100470.0;;;22.8
68342;BMP280;55668;52.310;21.066;2023-09-12T18:01:10;100480.0;;;22.7
68342;BMP280;55668;52.310;21.066;2023-09-12T18:16:39;100480.0;;;22.6
68342;BMP280;55668;52.310;21.066;2023-09-12T18:32:05;100480.0;;;21.9
68342;BMP280;55668;52.310;21.066;2023-09-12T18:48:56;100480.0;;;21.5
68342;BMP280;55668;52.310;21.066;2023-09-12T19:03:36;100480.0;;;21.2
68342;BMP280;55668;52.310;21.066;2023-09-12T19:18:12;100480.0;;;20.8
68342;BMP280;55668;52.310;21.066;2023-09-12T19:34:17;100480.0;;;20.4
68342;BMP280;55668;52.310;21.066;2023-09-12T19:48:46;100470.0;;;20.2
68342;BMP280;55668;52.310;21.066;2023-09-12T20:03:49;100480.0;;;19.9
68342;BMP280;55668;52.310;21.066;2023-09-12T20:21:31;100490.0;;;19.8
68342;BMP280;55668;52.310;21.066;2023-09-12T20:35:05;100500.0;;;19.6
68342;BMP280;55668;52.310;21.066;2023-09-12T20:51:06;100490.0;;;19.3
68342;BMP280;55668;52.310;21.066;2023-09-12T21:05:43;100490.0;;;19.2
68342;BMP280;55668;52.310;21.066;2023-09-12T21:21:15;100500.0;;;19.1
68342;BMP280;55668;52.310;21.066;2023-09-12T22:22:01;100500.0;;;18.8
68342;BMP280;55668;52.310;21.066;2023-09-12T22:37:52;100500.0;;;18.5
68342;BMP280;55668;52.310;21.066;2023-09-12T22:52:57;100510.0;;;18.2
68342;BMP280;55668;52.310;21.066;2023-09-12T23:10:24;100500.0;;;17.9
68342;BMP280;55668;52.310;21.066;2023-09-12T23:24:04;100500.0;;;17.6
68342;BMP280;55668;52.310;21.066;2023-09-12T23:38:41;100500.0;;;17.3
68342;BMP280;55668;52.310;21.066;2023-09-12T23:54:20;100490.0;;;17.1
